createdAt,value
2022-08-05T00:02:17.792Z,4.80
2022-08-05T00:07:26.840Z,4.80
2022-08-05T00:12:17.705Z,4.80
2022-08-05T00:17:19.369Z,4.70
2022-08-05T00:22:17.876Z,4.70
2022-08-05T00:27:17.790Z,5.00
2022-08-05T00:32:17.716Z,5.00
2022-08-05T00:37:17.787Z,4.70
2022-08-05T00:42:31.574Z,4.70
2022-08-05T00:47:17.779Z,5.00
2022-08-05T00:52:18.114Z,5.00
2022-08-05T00:57:17.769Z,4.60
2022-08-05T01:02:17.742Z,4.60
2022-08-05T01:07:17.870Z,4.50
2022-08-05T01:12:18.703Z,4.50
2022-08-05T01:17:17.798Z,4.50
2022-08-05T01:22:18.894Z,4.50
2022-08-05T01:27:19.602Z,4.80
2022-08-05T01:32:18.419Z,4.80
2022-08-05T01:37:24.476Z,4.70
2022-08-05T01:42:17.760Z,4.70
2022-08-05T01:47:17.792Z,4.80
2022-08-05T01:52:18.225Z,4.80
2022-08-05T01:58:12.869Z,4.80
2022-08-05T02:02:17.882Z,4.80
2022-08-05T02:07:22.035Z,4.70
2022-08-05T02:12:17.785Z,4.70
2022-08-05T02:17:29.876Z,4.10
2022-08-05T02:22:26.721Z,4.10
2022-08-05T02:27:17.808Z,4.40
2022-08-05T02:32:23.748Z,4.40
2022-08-05T02:37:17.822Z,4.10
2022-08-05T02:42:26.018Z,4.10
2022-08-05T02:47:17.847Z,4.20
2022-08-05T02:52:29.621Z,4.20
2022-08-05T02:58:09.414Z,4.10
2022-08-05T03:02:17.790Z,4.10
2022-08-05T03:07:40.407Z,4.20
2022-08-05T03:12:17.807Z,4.20
2022-08-05T03:17:17.839Z,4.30
2022-08-05T03:22:19.046Z,4.30
2022-08-05T03:27:18.187Z,4.50
2022-08-05T03:32:17.814Z,4.50
2022-08-05T03:37:17.855Z,4.70
2022-08-05T03:42:17.812Z,4.70
2022-08-05T03:47:17.854Z,4.60
2022-08-05T03:52:48.461Z,4.60
2022-08-05T03:57:18.106Z,4.20
2022-08-05T04:02:38.843Z,4.20
2022-08-05T04:07:17.873Z,4.40
2022-08-05T04:12:24.709Z,4.40
2022-08-05T04:17:17.898Z,4.50
2022-08-05T04:22:20.519Z,4.50
2022-08-05T04:27:17.891Z,4.60
2022-08-05T04:32:20.090Z,4.60
2022-08-05T04:37:17.909Z,4.30
2022-08-05T04:42:17.837Z,4.30
2022-08-05T04:47:20.301Z,4.00
2022-08-05T04:52:18.594Z,4.00
2022-08-05T04:57:17.901Z,4.10
2022-08-05T05:02:36.407Z,4.10
2022-08-05T05:07:17.922Z,4.00
2022-08-05T05:12:17.857Z,4.00
2022-08-05T05:17:23.330Z,4.30
2022-08-05T05:22:23.870Z,4.30
2022-08-05T05:27:17.893Z,4.50
2022-08-05T05:32:18.367Z,4.50
2022-08-05T05:37:17.957Z,3.70
2022-08-05T05:42:17.899Z,3.70
2022-08-05T05:47:30.621Z,3.70
2022-08-05T05:52:29.830Z,3.70
2022-08-05T05:57:19.380Z,3.60
2022-08-05T06:02:32.516Z,3.60
2022-08-05T06:07:17.954Z,3.40
2022-08-05T06:12:17.890Z,3.40
2022-08-05T06:17:21.975Z,3.40
2022-08-05T06:22:17.926Z,3.40
2022-08-05T06:28:10.813Z,3.10
2022-08-05T06:32:26.090Z,3.10
2022-08-05T06:37:17.957Z,2.90
2022-08-05T06:42:17.914Z,2.90
2022-08-05T06:47:30.343Z,2.60
2022-08-05T06:52:36.977Z,2.60
2022-08-05T06:57:57.534Z,2.80
2022-08-05T07:02:17.928Z,2.80
2022-08-05T07:07:24.190Z,2.90
2022-08-05T07:12:17.937Z,2.90
2022-08-05T07:18:02.048Z,2.60
2022-08-05T07:22:17.996Z,2.60
2022-08-05T07:27:17.979Z,2.70
2022-08-05T07:32:18.282Z,2.70
2022-08-05T07:37:17.992Z,2.60
2022-08-05T07:42:18.046Z,2.60
2022-08-05T07:47:18.038Z,3.00
2022-08-05T07:52:17.993Z,3.00
2022-08-05T07:57:58.857Z,2.50
2022-08-05T08:02:18.255Z,2.50
2022-08-05T08:07:22.131Z,2.40
2022-08-05T08:12:35.259Z,2.40
2022-08-05T08:17:18.042Z,2.30
2022-08-05T08:22:18.001Z,2.30
2022-08-05T08:27:18.572Z,2.20
2022-08-05T08:32:18.549Z,2.20
2022-08-05T08:37:20.464Z,2.60
2022-08-05T08:42:34.571Z,2.60
2022-08-05T08:47:47.607Z,2.90
2022-08-05T08:52:18.027Z,2.90
2022-08-05T08:57:18.051Z,3.70
2022-08-05T09:02:18.125Z,3.70
2022-08-05T09:07:19.676Z,2.90
2022-08-05T09:12:20.576Z,2.90
2022-08-05T09:17:42.986Z,3.20
2022-08-05T09:22:31.156Z,3.20
2022-08-05T09:27:18.704Z,3.00
2022-08-05T09:32:40.193Z,3.00
2022-08-05T09:37:18.055Z,3.30
2022-08-05T09:42:23.162Z,3.30
2022-08-05T09:47:20.445Z,3.10
2022-08-05T09:52:18.017Z,3.10
2022-08-05T09:57:23.469Z,3.10
2022-08-05T10:02:18.073Z,3.20
2022-08-05T10:07:20.423Z,3.20
2022-08-05T10:12:30.547Z,3.70
2022-08-05T10:22:29.774Z,3.70
2022-08-05T10:27:18.198Z,3.70
2022-08-05T10:33:02.203Z,3.40
2022-08-05T10:37:18.066Z,3.40
2022-08-05T10:42:18.503Z,3.50
2022-08-05T10:47:27.137Z,3.50
2022-08-05T10:52:18.115Z,3.30
2022-08-05T10:57:18.094Z,3.30
2022-08-05T11:02:38.209Z,3.70
2022-08-05T11:07:18.054Z,3.70
2022-08-05T11:12:18.106Z,3.40
2022-08-05T11:17:57.181Z,3.40
2022-08-05T11:22:18.133Z,3.10
2022-08-05T11:27:18.111Z,3.10
2022-08-05T11:32:18.094Z,3.60
2022-08-05T11:38:29.336Z,3.60
2022-08-05T11:42:18.656Z,3.40
2022-08-05T11:47:21.821Z,3.40
2022-08-05T11:52:18.119Z,3.70
2022-08-05T11:57:25.847Z,3.70
2022-08-05T12:02:23.912Z,3.30
2022-08-05T12:07:18.101Z,3.30
2022-08-05T12:12:18.145Z,2.90
2022-08-05T12:18:03.596Z,2.90
2022-08-05T12:22:20.126Z,3.00
2022-08-05T12:27:32.539Z,3.00
2022-08-05T12:32:18.145Z,2.70
2022-08-05T12:37:21.577Z,2.70
2022-08-05T12:42:18.159Z,2.80
2022-08-05T12:47:18.229Z,2.80
2022-08-05T12:52:25.378Z,2.90
2022-08-05T12:57:18.194Z,2.90
2022-08-05T13:02:18.230Z,2.70
2022-08-05T13:07:26.934Z,2.70
2022-08-05T13:12:18.176Z,3.30
2022-08-05T13:22:28.010Z,3.10
2022-08-05T13:27:23.067Z,3.10
2022-08-05T13:32:21.741Z,3.50
2022-08-05T13:37:34.374Z,3.50
2022-08-05T13:42:18.277Z,3.40
2022-08-05T13:47:35.501Z,3.40
2022-08-05T13:52:18.190Z,3.00
2022-08-05T13:57:18.226Z,3.00
2022-08-05T14:02:19.962Z,3.40
2022-08-05T14:07:26.466Z,3.40
2022-08-05T14:12:32.722Z,3.90
2022-08-05T14:17:18.166Z,3.90
2022-08-05T14:22:18.206Z,3.50
2022-08-05T14:27:18.775Z,3.50
2022-08-05T14:32:27.064Z,3.00
2022-08-05T14:37:18.175Z,3.00
2022-08-05T14:42:20.837Z,3.10
2022-08-05T14:48:02.697Z,3.10
2022-08-05T14:52:36.265Z,3.20
2022-08-05T14:57:18.229Z,3.20
2022-08-05T15:02:18.333Z,3.50
2022-08-05T15:08:06.286Z,3.50
2022-08-05T15:12:18.260Z,3.40
2022-08-05T15:17:46.721Z,3.40
2022-08-05T15:22:18.236Z,3.40
2022-08-05T15:27:18.243Z,3.40
2022-08-05T15:32:18.267Z,3.30
2022-08-05T15:38:08.418Z,3.30
2022-08-05T15:42:54.164Z,3.20
2022-08-05T15:47:18.223Z,3.20
2022-08-05T15:52:29.126Z,3.40
2022-08-05T15:57:18.276Z,3.40
2022-08-05T16:02:25.292Z,3.10
2022-08-05T16:07:18.243Z,3.10
2022-08-05T16:12:20.001Z,3.40
2022-08-05T16:17:18.265Z,3.40
2022-08-05T16:22:18.278Z,4.80
2022-08-05T16:27:18.294Z,4.80
2022-08-05T16:32:18.284Z,3.60
2022-08-05T16:38:16.315Z,3.60
2022-08-05T16:42:27.925Z,3.30
2022-08-05T16:47:28.695Z,3.30
2022-08-05T16:52:18.287Z,3.00
2022-08-05T16:57:22.333Z,3.00
2022-08-05T17:02:18.493Z,2.70
2022-08-05T17:07:39.172Z,2.70
2022-08-05T17:12:18.328Z,3.00
2022-08-05T17:17:19.679Z,3.00
2022-08-05T17:22:25.546Z,2.50
2022-08-05T17:27:18.315Z,2.50
2022-08-05T17:32:18.548Z,2.20
2022-08-05T17:37:39.255Z,2.20
2022-08-05T17:42:22.000Z,2.30
2022-08-05T17:47:18.313Z,2.30
2022-08-05T17:52:18.444Z,2.80
2022-08-05T17:57:18.445Z,2.80
2022-08-05T18:02:18.321Z,3.30
2022-08-05T18:07:18.306Z,3.30
2022-08-05T18:12:24.123Z,2.80
2022-08-05T18:18:00.202Z,2.80
2022-08-05T18:22:18.710Z,3.20
2022-08-05T18:27:19.161Z,3.20
2022-08-05T18:32:18.349Z,3.30
2022-08-05T18:37:33.508Z,3.30
2022-08-05T18:42:18.430Z,3.50
2022-08-05T18:47:18.420Z,3.50
2022-08-05T18:52:18.431Z,3.30
2022-08-05T18:57:18.414Z,3.30
2022-08-05T19:02:38.125Z,3.90
2022-08-05T19:07:18.458Z,3.90
2022-08-05T19:12:18.575Z,4.00
2022-08-05T19:17:18.495Z,4.00
2022-08-05T19:22:18.649Z,4.20
2022-08-05T19:27:18.543Z,4.20
2022-08-05T19:32:18.711Z,4.90
2022-08-05T19:37:18.405Z,4.90
2022-08-05T19:42:18.625Z,4.20
2022-08-05T19:47:18.547Z,4.20
2022-08-05T19:52:30.896Z,4.60
2022-08-05T19:57:18.743Z,4.60
2022-08-05T20:02:18.678Z,4.50
2022-08-05T20:07:45.888Z,4.50
2022-08-05T20:12:18.626Z,4.90
2022-08-05T20:17:18.537Z,4.90
2022-08-05T20:22:18.738Z,4.70
2022-08-05T20:27:18.466Z,4.70
2022-08-05T20:32:18.550Z,5.00
2022-08-05T20:38:04.811Z,5.00
2022-08-05T20:42:21.728Z,4.90
2022-08-05T20:47:18.405Z,4.90
2022-08-05T20:52:18.533Z,5.00
2022-08-05T20:57:42.156Z,5.00
2022-08-05T21:02:18.513Z,4.50
2022-08-05T21:07:18.406Z,4.50
2022-08-05T21:12:18.555Z,4.80
2022-08-05T21:17:18.436Z,4.80
2022-08-05T21:22:21.760Z,5.10
2022-08-05T21:27:18.465Z,5.10
2022-08-05T21:32:20.130Z,4.90
2022-08-05T21:37:18.434Z,4.90
2022-08-05T21:42:30.679Z,5.50
2022-08-05T21:47:56.477Z,5.50
2022-08-05T21:52:28.184Z,5.70
2022-08-05T21:57:32.369Z,5.70
2022-08-05T22:02:18.550Z,5.90
2022-08-05T22:12:18.632Z,6.10
2022-08-05T22:17:18.462Z,6.10
2022-08-05T22:22:22.804Z,4.70
2022-08-05T22:27:18.493Z,4.70
2022-08-05T22:32:18.490Z,5.00
2022-08-05T22:37:18.462Z,5.00
2022-08-05T22:42:25.280Z,4.80
2022-08-05T22:47:28.897Z,4.80
2022-08-05T22:57:18.635Z,5.10
2022-08-05T23:02:28.928Z,5.60
2022-08-05T23:07:18.565Z,5.60
2022-08-05T23:12:18.585Z,5.50
2022-08-05T23:17:23.934Z,5.50
2022-08-05T23:22:19.294Z,5.80
2022-08-05T23:27:18.541Z,5.80
2022-08-05T23:32:22.680Z,5.20
2022-08-05T23:37:18.512Z,5.20
2022-08-05T23:42:29.522Z,5.30
2022-08-05T23:47:18.527Z,5.30
2022-08-05T23:52:18.512Z,6.30
2022-08-05T23:57:18.557Z,6.30
